createdAt,value
2023-01-10T00:01:59.072Z,26.38
2023-01-10T00:07:02.803Z,27.73
2023-01-10T00:17:24.957Z,18.73
2023-01-10T00:22:28.723Z,21.95
2023-01-10T00:27:31.095Z,26.80
2023-01-10T00:32:33.439Z,27.05
2023-01-10T00:37:37.177Z,24.70
2023-01-10T00:42:57.093Z,26.40
2023-01-10T00:47:59.428Z,32.10
2023-01-10T00:53:03.184Z,25.23
2023-01-10T00:58:05.532Z,20.83
2023-01-10T01:03:08.430Z,22.90
2023-01-10T01:08:12.929Z,22.77
2023-01-10T01:13:16.213Z,24.10
2023-01-10T01:18:19.228Z,22.25
2023-01-10T01:23:23.241Z,27.75
2023-01-10T01:28:25.668Z,15.13
2023-01-10T01:33:28.013Z,16.83
2023-01-10T01:38:31.715Z,22.65
2023-01-10T01:43:48.944Z,14.00
2023-01-10T01:48:51.315Z,18.90
2023-01-10T01:53:57.991Z,18.38
2023-01-10T01:59:02.015Z,25.13
2023-01-10T02:04:08.691Z,22.35
2023-01-10T02:09:16.814Z,23.55
2023-01-10T02:14:20.584Z,23.30
2023-01-10T02:19:27.254Z,23.23
2023-01-10T02:24:44.921Z,20.73
2023-01-10T02:29:56.225Z,17.20
2023-01-10T02:35:07.511Z,20.95
2023-01-10T02:40:12.860Z,19.25
2023-01-10T02:45:17.699Z,21.05
2023-01-10T02:50:28.664Z,21.58
2023-01-10T02:55:34.880Z,16.63
2023-01-10T03:00:44.668Z,16.83
2023-01-10T03:05:52.983Z,18.75
2023-01-10T03:10:58.010Z,16.08
2023-01-10T03:16:01.126Z,17.25
2023-01-10T03:21:06.307Z,20.70
2023-01-10T03:26:09.925Z,22.98
2023-01-10T03:36:20.907Z,13.45
2023-01-10T03:41:27.312Z,21.88
2023-01-10T03:46:33.717Z,21.38
2023-01-10T03:51:39.590Z,17.05
2023-01-10T03:56:45.820Z,18.58
2023-01-10T04:01:48.344Z,13.73
2023-01-10T04:06:52.185Z,22.30
2023-01-10T04:11:54.593Z,14.70
2023-01-10T04:16:57.479Z,26.35
2023-01-10T04:22:01.181Z,18.38
2023-01-10T04:27:03.538Z,17.35
2023-01-10T04:32:06.198Z,19.08
2023-01-10T04:37:09.897Z,20.83
2023-01-10T04:42:12.336Z,18.38
2023-01-10T04:47:14.791Z,17.13
2023-01-10T04:52:18.504Z,19.67
2023-01-10T04:57:20.930Z,14.60
2023-01-10T05:02:23.468Z,14.15
2023-01-10T05:07:27.310Z,22.98
2023-01-10T05:12:29.893Z,23.35
2023-01-10T05:17:32.275Z,21.48
2023-01-10T05:22:35.991Z,17.55
2023-01-10T05:27:41.476Z,22.67
2023-01-10T05:32:43.956Z,17.55
2023-01-10T05:37:47.642Z,18.05
2023-01-10T05:42:49.989Z,17.65
2023-01-10T05:47:52.349Z,31.10
2023-01-10T05:52:58.061Z,24.60
2023-01-10T05:58:00.582Z,24.50
2023-01-10T06:03:03.014Z,31.00
2023-01-10T06:08:06.878Z,32.38
2023-01-10T06:13:10.062Z,32.25
2023-01-10T06:18:12.808Z,40.80
2023-01-10T06:23:16.554Z,35.13
2023-01-10T06:28:18.959Z,37.88
2023-01-10T06:33:21.407Z,32.75
2023-01-10T06:38:25.133Z,32.05
2023-01-10T06:43:27.468Z,36.33
2023-01-10T06:48:29.807Z,33.90
2023-01-10T06:53:33.546Z,42.13
2023-01-10T06:58:38.417Z,36.15
2023-01-10T07:03:41.047Z,43.22
2023-01-10T07:08:45.990Z,46.80
2023-01-10T07:13:48.374Z,47.78
2023-01-10T07:18:50.766Z,39.03
2023-01-10T07:23:54.543Z,42.17
2023-01-10T07:28:56.923Z,37.88
2023-01-10T07:33:59.293Z,35.25
2023-01-10T07:39:03.084Z,37.53
2023-01-10T07:44:05.581Z,33.72
2023-01-10T07:49:07.929Z,53.00
2023-01-10T07:54:13.603Z,28.83
2023-01-10T07:59:17.209Z,35.75
2023-01-10T08:04:19.593Z,40.78
2023-01-10T08:09:23.333Z,38.90
2023-01-10T08:14:25.845Z,30.02
2023-01-10T08:19:28.199Z,35.63
2023-01-10T08:24:31.898Z,38.88
2023-01-10T08:29:34.308Z,36.30
2023-01-10T08:34:36.767Z,26.63
2023-01-10T08:39:40.478Z,26.52
2023-01-10T08:44:42.865Z,27.00
2023-01-10T08:49:47.048Z,32.53
2023-01-10T08:54:51.090Z,28.15
2023-01-10T08:59:53.492Z,28.13
2023-01-10T09:04:55.890Z,27.00
2023-01-10T09:09:59.551Z,21.20
2023-01-10T09:15:01.966Z,18.80
2023-01-10T09:20:06.214Z,26.63
2023-01-10T09:25:11.238Z,23.70
2023-01-10T09:30:14.091Z,27.25
2023-01-10T09:35:16.540Z,27.30
2023-01-10T09:40:21.889Z,21.55
2023-01-10T09:45:28.290Z,21.90
2023-01-10T09:50:33.510Z,19.98
2023-01-10T09:55:38.555Z,22.67
2023-01-10T10:00:43.503Z,17.63
2023-01-10T10:05:46.105Z,16.48
2023-01-10T10:10:56.132Z,24.13
2023-01-10T10:16:04.289Z,24.17
2023-01-10T10:21:10.659Z,22.83
2023-01-10T10:26:19.191Z,27.17
2023-01-10T10:31:27.975Z,26.00
2023-01-10T10:36:36.262Z,19.83
2023-01-10T10:41:42.117Z,17.35
2023-01-10T10:46:44.486Z,18.52
2023-01-10T10:51:50.533Z,22.10
2023-01-10T10:56:56.230Z,26.73
2023-01-10T11:01:58.730Z,19.70
2023-01-10T11:07:01.785Z,22.53
2023-01-10T11:12:06.079Z,16.38
2023-01-10T11:17:25.585Z,20.65
2023-01-10T11:22:29.189Z,17.95
2023-01-10T11:27:36.072Z,19.55
2023-01-10T11:32:40.762Z,17.15
2023-01-10T11:37:43.159Z,26.77
2023-01-10T11:42:47.083Z,24.67
2023-01-10T11:47:50.897Z,20.70
2023-01-10T11:52:53.786Z,15.65
2023-01-10T11:57:59.788Z,27.95
2023-01-10T12:03:02.358Z,13.55
2023-01-10T12:08:06.530Z,19.47
2023-01-10T12:13:14.653Z,19.65
2023-01-10T12:18:18.235Z,23.85
2023-01-10T12:28:25.852Z,26.15
2023-01-10T12:33:29.794Z,22.98
2023-01-10T12:38:51.932Z,21.02
2023-01-10T12:44:15.015Z,22.77
2023-01-10T12:49:20.083Z,25.33
2023-01-10T12:54:24.339Z,20.38
2023-01-10T12:59:37.380Z,14.82
2023-01-10T13:04:41.402Z,23.13
2023-01-10T13:14:52.307Z,19.63
2023-01-10T13:20:12.365Z,20.20
2023-01-10T13:25:20.055Z,18.30
2023-01-10T13:30:32.349Z,20.50
2023-01-10T13:35:39.505Z,19.67
2023-01-10T13:40:41.909Z,18.50
2023-01-10T13:45:45.641Z,16.55
2023-01-10T13:51:08.181Z,14.32
2023-01-10T13:56:25.438Z,19.08
2023-01-10T14:01:48.922Z,18.13
2023-01-10T14:06:53.703Z,22.93
2023-01-10T14:11:58.842Z,18.58
2023-01-10T14:17:13.431Z,16.67
2023-01-10T14:22:24.346Z,22.73
2023-01-10T14:27:28.802Z,16.23
2023-01-10T14:32:38.197Z,17.38
2023-01-10T14:37:42.145Z,24.88
2023-01-10T14:42:44.783Z,18.60
2023-01-10T14:47:49.566Z,13.07
2023-01-10T14:52:51.928Z,16.23
2023-01-10T14:57:54.955Z,16.40
2023-01-10T15:03:01.642Z,18.17
2023-01-10T15:08:17.576Z,15.15
2023-01-10T15:13:22.166Z,18.83
2023-01-10T15:18:36.273Z,19.88
2023-01-10T15:23:40.023Z,16.33
2023-01-10T15:28:42.956Z,17.02
2023-01-10T15:33:56.269Z,24.20
2023-01-10T15:38:58.793Z,14.93
2023-01-10T15:44:16.073Z,14.02
2023-01-10T15:49:23.104Z,20.35
2023-01-10T15:54:29.694Z,17.52
2023-01-10T15:59:33.736Z,21.33
2023-01-10T16:04:37.911Z,14.82
2023-01-10T16:09:40.714Z,12.32
2023-01-10T16:14:43.173Z,19.63
2023-01-10T16:19:46.895Z,16.30
2023-01-10T16:24:52.464Z,13.13
2023-01-10T16:29:56.458Z,19.42
2023-01-10T16:35:01.486Z,15.98
2023-01-10T16:40:11.957Z,20.88
2023-01-10T16:45:15.001Z,19.92
2023-01-10T16:50:20.419Z,15.05
2023-01-10T16:55:24.691Z,19.60
2023-01-10T17:00:27.203Z,22.75
2023-01-10T17:05:31.056Z,15.95
2023-01-10T17:10:35.112Z,16.23
2023-01-10T17:15:37.567Z,16.25
2023-01-10T17:20:41.325Z,17.38
2023-01-10T17:25:44.640Z,17.15
2023-01-10T17:30:47.173Z,18.55
2023-01-10T17:35:53.504Z,11.05
2023-01-10T17:40:56.527Z,13.82
2023-01-10T17:45:59.749Z,18.67
2023-01-10T17:51:04.224Z,20.45
2023-01-10T17:56:07.396Z,16.30
2023-01-10T18:01:16.036Z,24.63
2023-01-10T18:06:24.086Z,21.02
2023-01-10T18:11:28.797Z,22.80
2023-01-10T18:16:31.264Z,16.63
2023-01-10T18:21:35.039Z,15.95
2023-01-10T18:26:37.437Z,16.10
2023-01-10T18:31:44.637Z,15.90
2023-01-10T18:36:48.390Z,16.20
2023-01-10T18:41:50.775Z,14.18
2023-01-10T18:46:53.143Z,15.18
2023-01-10T18:51:56.927Z,10.40
2023-01-10T18:56:59.312Z,9.57
2023-01-10T19:02:01.805Z,11.75
2023-01-10T19:07:05.541Z,13.45
2023-01-10T19:12:09.606Z,14.68
2023-01-10T19:17:12.045Z,10.05
2023-01-10T19:22:15.838Z,10.05
2023-01-10T19:27:18.898Z,11.50
2023-01-10T19:32:21.379Z,10.80
2023-01-10T19:37:25.123Z,9.63
2023-01-10T19:42:27.558Z,10.93
2023-01-10T19:47:29.976Z,11.32
2023-01-10T19:52:33.747Z,12.43
2023-01-10T19:57:36.103Z,9.82
2023-01-10T20:02:38.579Z,8.98
2023-01-10T20:07:42.495Z,9.75
2023-01-10T20:12:44.933Z,9.70
2023-01-10T20:17:47.304Z,12.68
2023-01-10T20:22:51.055Z,8.45
2023-01-10T20:27:53.461Z,10.00
2023-01-10T20:32:55.862Z,8.55
2023-01-10T20:37:59.655Z,8.32
2023-01-10T20:43:02.026Z,8.77
2023-01-10T20:48:04.525Z,8.55
2023-01-10T20:53:08.220Z,7.55
2023-01-10T20:58:10.647Z,7.70
2023-01-10T21:03:13.105Z,6.75
2023-01-10T21:08:16.952Z,10.30
2023-01-10T21:13:19.517Z,6.68
2023-01-10T21:18:24.282Z,7.30
2023-01-10T21:23:28.992Z,6.93
2023-01-10T21:28:34.005Z,6.93
2023-01-10T21:33:37.025Z,7.32
2023-01-10T21:38:41.516Z,7.20
2023-01-10T21:43:46.002Z,8.20
2023-01-10T21:48:48.409Z,7.93
2023-01-10T21:53:52.133Z,7.80
2023-01-10T21:58:54.542Z,7.57
2023-01-10T22:03:57.017Z,8.20
2023-01-10T22:09:00.820Z,7.30
2023-01-10T22:14:03.357Z,8.50
2023-01-10T22:19:05.923Z,8.73
2023-01-10T22:24:10.336Z,8.77
2023-01-10T22:29:12.839Z,7.25
2023-01-10T22:34:15.574Z,6.45
2023-01-10T22:39:19.407Z,7.03
2023-01-10T22:44:22.674Z,7.45
2023-01-10T22:49:25.026Z,7.40
2023-01-10T22:54:28.802Z,7.75
2023-01-10T22:59:42.031Z,8.00
2023-01-10T23:04:44.467Z,7.67
2023-01-10T23:09:48.160Z,11.40
2023-01-10T23:14:50.475Z,8.75
2023-01-10T23:19:52.816Z,8.43
2023-01-10T23:24:56.476Z,8.05
2023-01-10T23:29:58.792Z,9.45
2023-01-10T23:35:01.225Z,9.25
2023-01-10T23:40:05.279Z,10.13
2023-01-10T23:45:08.264Z,9.55
2023-01-10T23:50:11.383Z,9.20
2023-01-10T23:55:15.090Z,9.68
